Time;durP1;ratioP1;P1;durP2;ratioP2;P2;SDS_P1;SDS_P2;PMS_P1;PMS_P2;Temp;Humidity;BMP_temperature;BMP_pressure;BME280_temperature;BME280_humidity;BME280_pressure;Samples;Min_cycle;Max_cycle;Signal;HPM_P1;HPM_P2
2021/01/01 00:01:47;;;;;;;3.95;3.58;;;;;;;5.98;65.44;95543.22;1789560;79;21214;-56
2021/01/01 00:04:15;;;;;;;3.83;3.40;;;;;;;5.85;65.67;95541.09;1782836;79;21259;-57
2021/01/01 00:06:47;;;;;;;4.00;3.60;;;;;;;5.76;66.01;95546.89;1784822;79;21650;-58
2021/01/01 00:09:16;;;;;;;3.72;3.30;;;;;;;5.72;66.22;95553.97;1783599;79;21177;-58
2021/01/01 00:11:49;;;;;;;5.40;3.45;;;;;;;5.74;66.41;95550.86;1767472;79;21151;-57
2021/01/01 00:14:17;;;;;;;3.80;3.42;;;;;;;5.77;66.48;95561.39;1780621;79;21120;-58
2021/01/01 00:16:45;;;;;;;3.70;3.33;;;;;;;5.79;66.69;95554.38;1776353;79;22367;-56
2021/01/01 00:19:13;;;;;;;4.00;3.70;;;;;;;5.82;66.58;95560.61;1791118;79;21090;-58
2021/01/01 00:21:42;;;;;;;4.00;3.60;;;;;;;5.84;66.43;95564.74;1792338;79;21365;-58
2021/01/01 00:24:10;;;;;;;4.08;3.67;;;;;;;5.77;66.17;95571.69;1784450;79;21079;-57
2021/01/01 00:26:39;;;;;;;3.40;3.10;;;;;;;5.66;66.33;95562.95;1792071;79;26073;-58
2021/01/01 00:29:08;;;;;;;3.25;2.95;;;;;;;5.59;66.61;95566.02;1683294;83;22280;-58
2021/01/01 00:31:36;;;;;;;3.65;3.15;;;;;;;5.56;66.59;95559.80;1716349;82;21107;-56
2021/01/01 00:34:04;;;;;;;5.62;3.25;;;;;;;5.50;66.75;95569.58;1682585;82;21215;-57
2021/01/01 00:36:32;;;;;;;3.83;3.42;;;;;;;5.48;66.98;95575.30;1745485;81;21139;-56
2021/01/01 00:39:00;;;;;;;3.60;3.30;;;;;;;5.48;67.05;95565.47;1745045;81;21061;-57
2021/01/01 00:41:30;;;;;;;3.40;3.10;;;;;;;5.55;67.12;95570.56;1745060;81;22214;-57
2021/01/01 00:43:58;;;;;;;3.17;2.98;;;;;;;5.57;67.16;95568.70;1725081;83;21593;-57
2021/01/01 00:46:27;;;;;;;3.62;3.33;;;;;;;5.58;67.15;95561.35;1726838;83;21151;-55
2021/01/01 00:48:58;;;;;;;14.95;11.38;;;;;;;5.57;67.01;95561.45;1724576;83;21672;-57
2021/01/01 00:51:29;;;;;;;60.40;48.48;;;;;;;5.57;67.21;95560.16;1736196;81;21611;-56
2021/01/01 00:53:57;;;;;;;4.80;4.25;;;;;;;5.61;67.36;95561.15;1755207;80;21380;-57
2021/01/01 00:56:26;;;;;;;3.77;3.47;;;;;;;5.65;67.04;95560.00;1753536;81;21572;-56
2021/01/01 00:58:55;;;;;;;3.95;3.33;;;;;;;5.63;66.93;95558.00;1685702;83;21263;-57
2021/01/01 01:01:25;;;;;;;4.47;3.55;;;;;;;5.61;66.93;95550.86;1732510;82;21494;-58
2021/01/01 01:03:56;;;;;;;4.20;3.80;;;;;;;5.58;66.82;95556.68;1726196;82;21160;-57
2021/01/01 01:06:25;;;;;;;4.80;4.00;;;;;;;5.53;66.81;95556.98;1732222;82;21384;-58
2021/01/01 01:08:54;;;;;;;4.10;3.70;;;;;;;5.45;66.91;95570.34;1734235;80;21206;-56
2021/01/01 01:11:24;;;;;;;4.40;4.00;;;;;;;5.43;66.99;95557.24;1729332;82;21088;-57
2021/01/01 01:13:56;;;;;;;5.78;4.65;;;;;;;5.39;67.13;95548.06;1740999;80;21113;-56
2021/01/01 01:16:26;;;;;;;4.15;3.67;;;;;;;5.33;67.29;95561.70;1711992;83;21183;-57
2021/01/01 01:18:55;;;;;;;4.35;3.67;;;;;;;5.26;67.39;95550.18;1726143;82;21468;-58
2021/01/01 01:21:24;;;;;;;3.60;3.30;;;;;;;5.19;67.54;95556.63;1754583;80;21171;-58
2021/01/01 01:23:54;;;;;;;4.12;3.72;;;;;;;5.15;67.63;95556.48;1754455;80;21081;-57
2021/01/01 01:26:22;;;;;;;4.15;3.75;;;;;;;5.10;67.55;95560.64;1729552;80;21069;-57
2021/01/01 01:28:50;;;;;;;3.95;3.55;;;;;;;5.04;67.57;95570.03;1732829;82;21851;-59
2021/01/01 01:31:19;;;;;;;;;;;;;;;5.01;67.69;95562.51;1745274;80;21214;-59
2021/01/01 01:33:47;;;;;;;4.15;3.67;;;;;;;5.00;67.79;95565.17;1734723;82;20232;-59
2021/01/01 01:36:16;;;;;;;4.20;3.80;;;;;;;4.96;67.80;95567.13;1734014;81;21151;-56
2021/01/01 01:38:44;;;;;;;4.08;3.67;;;;;;;4.91;67.79;95566.13;1727511;82;21167;-57
2021/01/01 01:41:12;;;;;;;4.92;4.22;;;;;;;4.87;68.12;95568.55;1726303;82;21093;-57
2021/01/01 01:43:40;;;;;;;4.00;3.50;;;;;;;4.89;68.22;95573.59;1747708;80;21376;-59
2021/01/01 01:46:09;;;;;;;4.10;3.45;;;;;;;4.86;67.96;95563.03;1733931;81;21504;-59
2021/01/01 01:48:39;;;;;;;3.40;3.10;;;;;;;4.81;67.80;95567.66;1729568;81;21160;-56
2021/01/01 01:51:08;;;;;;;3.60;3.30;;;;;;;4.79;67.71;95566.94;1730172;82;21140;-60
2021/01/01 01:53:45;;;;;;;3.20;2.90;;;;;;;4.77;67.70;95573.45;1734417;82;21119;-57
2021/01/01 01:56:14;;;;;;;3.35;3.05;;;;;;;4.75;67.71;95574.02;1733044;82;21376;-59
2021/01/01 01:58:46;;;;;;;3.65;3.05;;;;;;;4.73;67.84;95571.17;1738404;82;21140;-57
2021/01/01 02:01:16;;;;;;;2.92;2.70;;;;;;;4.71;67.80;95573.84;1716602;83;21600;-58
2021/01/01 02:03:43;;;;;;;3.20;2.72;;;;;;;4.68;67.74;95572.74;1720138;83;21641;-57
2021/01/01 02:06:15;;;;;;;3.12;2.83;;;;;;;4.67;67.87;95576.25;1714196;83;21149;-58
2021/01/01 02:08:44;;;;;;;3.27;2.98;;;;;;;4.67;67.85;95570.27;1666853;83;21279;-58
2021/01/01 02:11:16;;;;;;;3.15;2.85;;;;;;;4.68;67.99;95570.64;1707756;83;21207;-56
2021/01/01 02:13:47;;;;;;;4.25;3.00;;;;;;;4.72;68.11;95581.08;1706364;82;21178;-56
2021/01/01 02:16:15;;;;;;;45.10;29.57;;;;;;;4.78;68.10;95579.41;1706916;83;21223;-56
2021/01/01 02:18:46;;;;;;;21.55;17.62;;;;;;;4.79;68.28;95578.03;1709520;83;21636;-57
2021/01/01 02:21:16;;;;;;;4.40;4.00;;;;;;;4.83;68.36;95573.98;1712164;83;21637;-55
2021/01/01 02:23:45;;;;;;;3.75;3.20;;;;;;;4.81;68.01;95583.08;1705460;83;21166;-54
2021/01/01 02:26:16;;;;;;;4.75;3.10;;;;;;;4.78;67.83;95578.13;1705279;83;21147;-57
2021/01/01 02:28:44;;;;;;;4.55;3.72;;;;;;;4.74;67.87;95580.55;1676590;83;28279;-57
2021/01/01 02:31:13;;;;;;;3.20;2.90;;;;;;;4.74;67.96;95576.69;1710531;83;21139;-57
2021/01/01 02:33:42;;;;;;;2.98;2.67;;;;;;;4.77;68.01;95577.31;1706564;83;21678;-58
2021/01/01 02:36:11;;;;;;;3.12;2.65;;;;;;;4.81;67.92;95574.55;1710636;83;22478;-57
2021/01/01 02:38:39;;;;;;;2.60;2.40;;;;;;;4.87;67.86;95574.98;1710667;83;21138;-55
2021/01/01 02:41:07;;;;;;;2.12;2.00;;;;;;;4.90;67.87;95568.36;1709075;83;21122;-57
2021/01/01 02:43:36;;;;;;;2.75;2.55;;;;;;;4.89;67.75;95558.98;1704228;83;21127;-57
2021/01/01 02:46:04;;;;;;;2.77;2.52;;;;;;;4.86;67.83;95560.47;1708298;82;22281;-58
2021/01/01 02:48:33;;;;;;;2.80;2.55;;;;;;;4.85;67.89;95557.99;1713959;83;21086;-55
2021/01/01 02:51:02;;;;;;;3.95;2.85;;;;;;;4.82;67.94;95559.03;1670070;83;21618;-57
2021/01/01 02:53:31;;;;;;;3.60;2.30;;;;;;;4.81;67.90;95554.80;1703113;83;21532;-56
2021/01/01 02:55:58;;;;;;;2.77;2.58;;;;;;;4.81;67.91;95552.23;1666254;83;21116;-54
2021/01/01 02:58:26;;;;;;;2.87;2.60;;;;;;;4.80;67.89;95565.99;1714213;83;23626;-56
2021/01/01 03:00:54;;;;;;;2.33;2.12;;;;;;;4.77;67.97;95572.64;1730226;81;21176;-56
2021/01/01 03:03:21;;;;;;;3.70;2.62;;;;;;;4.76;68.09;95573.08;1746714;81;21067;-56
2021/01/01 03:05:50;;;;;;;2.58;2.37;;;;;;;4.78;68.19;95573.80;1752773;81;21168;-57
2021/01/01 03:08:17;;;;;;;2.40;2.20;;;;;;;4.85;68.21;95575.98;1744032;81;21139;-57
2021/01/01 03:10:46;;;;;;;2.65;2.33;;;;;;;4.89;68.19;95574.41;1753933;81;21226;-57
2021/01/01 03:13:14;;;;;;;2.40;2.20;;;;;;;4.91;68.23;95573.84;1760748;81;21623;-57
2021/01/01 03:15:42;;;;;;;2.90;2.47;;;;;;;4.94;68.12;95574.94;1744788;81;22319;-56
2021/01/01 03:18:11;;;;;;;2.62;2.42;;;;;;;4.96;67.96;95569.70;1746970;81;21146;-55
2021/01/01 03:20:39;;;;;;;2.35;2.15;;;;;;;4.94;67.81;95570.27;1756535;80;21073;-56
2021/01/01 03:23:07;;;;;;;3.30;3.00;;;;;;;4.90;67.87;95587.64;1739833;81;21614;-56
2021/01/01 03:25:35;;;;;;;4.00;3.60;;;;;;;4.87;67.84;95590.84;1742937;81;21143;-56
2021/01/01 03:28:04;;;;;;;3.40;3.10;;;;;;;4.82;67.88;95579.59;1754153;80;21081;-55
2021/01/01 03:30:31;;;;;;;2.62;2.42;;;;;;;4.78;68.06;95584.08;1711139;83;21097;-58
2021/01/01 03:32:59;;;;;;;2.70;2.40;;;;;;;4.74;68.22;95589.53;1711410;83;21073;-56
2021/01/01 03:35:27;;;;;;;2.55;2.35;;;;;;;4.69;68.20;95591.11;1705654;83;22174;-56
2021/01/01 03:37:55;;;;;;;2.65;2.42;;;;;;;4.69;68.28;95592.39;1714287;82;21167;-57
2021/01/01 03:40:23;;;;;;;4.35;2.40;;;;;;;4.68;68.30;95597.16;1759687;81;21501;-57
2021/01/01 03:42:51;;;;;;;3.50;2.40;;;;;;;4.67;68.46;95599.81;1720967;82;21169;-56
2021/01/01 03:45:19;;;;;;;2.95;2.50;;;;;;;4.64;68.45;95607.28;1746822;81;21060;-55
2021/01/01 03:47:47;;;;;;;3.40;2.42;;;;;;;4.59;68.43;95611.41;1744724;80;21213;-55
2021/01/01 03:50:14;;;;;;;3.75;2.60;;;;;;;4.51;68.54;95610.25;1731481;82;21144;-56
2021/01/01 03:52:42;;;;;;;3.00;2.67;;;;;;;4.45;68.67;95608.05;1731287;82;21269;-56
2021/01/01 03:55:10;;;;;;;3.27;2.62;;;;;;;4.38;68.90;95605.04;1731491;81;21084;-56
2021/01/01 03:57:38;;;;;;;3.27;2.67;;;;;;;4.36;69.03;95605.13;1714613;83;21501;-56
2021/01/01 04:00:11;;;;;;;3.33;2.58;;;;;;;4.35;69.06;95614.21;1712634;82;22139;-56
2021/01/01 04:02:41;;;;;;;3.05;2.42;;;;;;;4.35;69.07;95618.06;1719757;82;22774;-56
2021/01/01 04:05:12;;;;;;;3.12;2.70;;;;;;;4.37;69.13;95614.94;1723844;82;21098;-58
2021/01/01 04:07:40;;;;;;;3.05;2.75;;;;;;;4.39;69.24;95612.65;1736401;82;21093;-58
2021/01/01 04:10:09;;;;;;;4.03;3.52;;;;;;;4.40;69.29;95618.13;1719760;80;21207;-58
2021/01/01 04:12:36;;;;;;;3.00;2.75;;;;;;;4.39;69.23;95616.50;1719761;80;21368;-58
2021/01/01 04:15:05;;;;;;;4.17;3.00;;;;;;;4.35;69.38;95611.17;1725474;83;21620;-55
2021/01/01 04:17:34;;;;;;;4.00;3.05;;;;;;;4.33;69.41;95616.05;1726437;83;21199;-56
2021/01/01 04:20:02;;;;;;;3.45;3.15;;;;;;;4.30;69.48;95618.81;1693499;83;21073;-56
2021/01/01 04:22:30;;;;;;;2.98;2.77;;;;;;;4.23;69.56;95619.64;1724842;80;21477;-56
2021/01/01 04:24:58;;;;;;;4.15;3.42;;;;;;;4.11;69.89;95627.64;1747874;82;21485;-56
2021/01/01 04:27:25;;;;;;;3.02;2.72;;;;;;;4.03;70.20;95626.80;1738297;82;21147;-56
2021/01/01 04:29:53;;;;;;;3.58;2.70;;;;;;;3.96;70.39;95628.53;1745162;81;21647;-59
2021/01/01 04:32:21;;;;;;;3.87;2.72;;;;;;;3.82;70.66;95631.46;1712641;83;21053;-56
2021/01/01 04:34:49;;;;;;;3.40;3.10;;;;;;;3.70;71.12;95637.33;1739223;80;21152;-56
2021/01/01 04:37:16;;;;;;;3.50;3.10;;;;;;;3.67;71.49;95637.04;1713231;83;21640;-57
2021/01/01 04:39:46;;;;;;;4.53;2.98;;;;;;;3.65;71.66;95635.46;1734577;80;22067;-56
2021/01/01 04:42:13;;;;;;;3.15;2.85;;;;;;;3.70;71.94;95638.61;1745767;81;21187;-56
2021/01/01 04:44:41;;;;;;;3.25;2.95;;;;;;;3.78;71.96;95647.97;1733310;82;21215;-56
2021/01/01 04:47:10;;;;;;;3.25;2.95;;;;;;;3.82;71.98;95651.17;1699276;83;21521;-57
2021/01/01 04:49:37;;;;;;;;;;;;;;;3.85;71.84;95652.28;1727034;82;21904;-58
2021/01/01 04:52:05;;;;;;;3.90;3.52;;;;;;;3.87;71.90;95655.11;1723844;82;20499;-57
2021/01/01 04:54:33;;;;;;;3.00;2.70;;;;;;;3.95;71.96;95660.27;1726145;82;21186;-56
2021/01/01 04:57:01;;;;;;;4.40;3.10;;;;;;;4.13;71.39;95664.30;1715740;83;21170;-56
2021/01/01 04:59:29;;;;;;;3.90;3.53;;;;;;;4.13;71.39;95664.30;1729845;82;21520;-56
2021/01/01 05:01:59;;;;;;;3.27;2.98;;;;;;;4.21;71.41;95672.81;1751150;81;26314;-55
2021/01/01 05:04:26;;;;;;;3.50;3.15;;;;;;;4.24;71.24;95680.33;1758808;81;21159;-57
2021/01/01 05:06:55;;;;;;;4.28;3.35;;;;;;;4.24;71.17;95673.48;1724693;82;21144;-56
2021/01/01 05:09:22;;;;;;;2.47;2.27;;;;;;;4.27;71.25;95676.30;1732545;81;21519;-56
2021/01/01 05:12:06;;;;;;;2.42;2.22;;;;;;;4.30;71.19;95681.26;1739464;81;21052;-57
2021/01/01 05:14:34;;;;;;;1.82;1.67;;;;;;;4.32;70.90;95685.84;1737310;81;21837;-57
2021/01/01 05:17:01;;;;;;;2.00;1.80;;;;;;;4.36;70.72;95683.47;1730173;81;21069;-56
2021/01/01 05:19:40;;;;;;;1.95;1.77;;;;;;;4.41;70.48;95687.86;1742670;81;21048;-57
2021/01/01 05:22:10;;;;;;;1.40;1.30;;;;;;;4.44;70.51;95690.72;1738648;81;21130;-57
2021/01/01 05:24:46;;;;;;;1.87;1.77;;;;;;;4.49;70.61;95692.55;1729197;81;21637;-57
2021/01/01 05:27:17;;;;;;;2.62;1.80;;;;;;;4.54;70.54;95702.08;1741732;81;22073;-58
2021/01/01 05:29:55;;;;;;;1.80;1.50;;;;;;;4.57;70.28;95699.77;1740111;80;21262;-57
2021/01/01 05:32:25;;;;;;;1.50;1.40;;;;;;;4.57;70.22;95703.18;1738048;81;21201;-58
2021/01/01 05:34:53;;;;;;;1.55;1.45;;;;;;;4.57;70.04;95713.45;1734690;81;21154;-58
2021/01/01 05:37:32;;;;;;;2.00;1.80;;;;;;;4.57;69.95;95713.89;1731011;81;21075;-57
2021/01/01 05:40:09;;;;;;;1.92;1.50;;;;;;;4.58;69.91;95716.38;1741583;81;21409;-58
2021/01/01 05:42:37;;;;;;;1.80;1.70;;;;;;;4.59;69.79;95720.61;1733905;80;21161;-58
2021/01/01 05:45:13;;;;;;;1.72;1.60;;;;;;;4.64;69.76;95723.34;1712219;82;21151;-57
2021/01/01 05:47:41;;;;;;;1.70;1.60;;;;;;;4.67;69.64;95724.00;1736262;80;21856;-57
2021/01/01 05:50:09;;;;;;;2.90;2.20;;;;;;;4.70;69.51;95727.64;1734440;81;21159;-57
2021/01/01 05:52:37;;;;;;;2.47;1.87;;;;;;;4.73;69.41;95726.64;1733775;81;21331;-56
2021/01/01 05:55:07;;;;;;;1.90;1.80;;;;;;;4.75;69.25;95730.78;1752810;81;21134;-57
2021/01/01 05:57:36;;;;;;;2.70;2.10;;;;;;;4.77;69.26;95734.08;1738968;81;21170;-56
2021/01/01 06:00:08;;;;;;;3.12;2.05;;;;;;;4.78;69.11;95730.58;1752559;81;21656;-57
2021/01/01 06:02:41;;;;;;;2.15;1.60;;;;;;;4.78;69.12;95733.61;1723828;81;21146;-57
2021/01/01 06:05:11;;;;;;;4.90;3.08;;;;;;;4.77;69.11;95734.55;1747106;81;21342;-56
2021/01/01 06:07:40;;;;;;;1.87;1.70;;;;;;;4.74;68.92;95739.41;1714294;82;21523;-55
2021/01/01 06:10:10;;;;;;;2.58;2.00;;;;;;;4.71;69.02;95740.05;1730873;81;21081;-56
2021/01/01 06:12:39;;;;;;;2.45;2.00;;;;;;;4.73;69.05;95736.92;1752793;81;21588;-58
2021/01/01 06:15:09;;;;;;;2.95;2.27;;;;;;;4.76;69.13;95741.41;1729126;82;21097;-56
2021/01/01 06:17:49;;;;;;;2.40;1.90;;;;;;;4.78;69.13;95751.13;1735515;82;21194;-56
2021/01/01 06:20:20;;;;;;;3.47;2.02;;;;;;;4.79;69.00;95751.98;1750559;80;21146;-57
2021/01/01 06:23:02;;;;;;;2.52;1.92;;;;;;;4.81;69.17;95757.03;1750832;81;21111;-57
2021/01/01 06:25:31;;;;;;;2.67;2.17;;;;;;;4.81;69.25;95759.59;1754263;81;21191;-57
2021/01/01 06:28:07;;;;;;;3.58;2.70;;;;;;;4.78;69.41;95755.45;1762912;81;21180;-57
2021/01/01 06:30:35;;;;;;;3.60;2.67;;;;;;;4.77;69.43;95755.92;1757186;81;21368;-56
2021/01/01 06:33:07;;;;;;;4.65;2.87;;;;;;;4.75;69.63;95757.77;1723586;82;21135;-56
2021/01/01 06:35:42;;;;;;;3.47;2.75;;;;;;;4.78;69.74;95758.03;1731770;82;21639;-58
2021/01/01 06:38:10;;;;;;;5.08;3.25;;;;;;;4.79;69.59;95764.36;1748254;80;21171;-56
2021/01/01 06:40:39;;;;;;;3.70;3.20;;;;;;;4.78;69.71;95762.70;1735475;82;21134;-56
2021/01/01 06:43:07;;;;;;;3.60;2.83;;;;;;;4.82;69.75;95765.94;1760626;81;26386;-56
2021/01/01 06:45:43;;;;;;;2.95;2.50;;;;;;;4.84;69.58;95767.94;1752194;81;21121;-56
2021/01/01 06:48:15;;;;;;;2.70;2.10;;;;;;;4.83;69.39;95768.85;1722155;82;21062;-58
2021/01/01 06:50:43;;;;;;;56.30;38.45;;;;;;;4.84;69.31;95776.94;1746898;81;21196;-58
2021/01/01 06:53:15;;;;;;;14.53;9.10;;;;;;;4.89;69.46;95771.52;1765829;81;21175;-58
2021/01/01 06:55:47;;;;;;;3.65;3.12;;;;;;;4.95;69.27;95773.27;1738545;82;21386;-59
2021/01/01 06:58:24;;;;;;;2.77;2.00;;;;;;;5.02;69.02;95780.13;1748179;81;21143;-58
2021/01/01 07:00:55;;;;;;;2.60;1.87;;;;;;;5.05;68.65;95783.81;1745088;81;21214;-56
2021/01/01 07:03:41;;;;;;;3.15;2.47;;;;;;;5.08;68.43;95784.91;1738123;82;21147;-58
2021/01/01 07:06:14;;;;;;;3.55;2.33;;;;;;;5.14;68.25;95787.55;1722958;82;21653;-58
2021/01/01 07:08:45;;;;;;;2.40;2.20;;;;;;;5.15;68.06;95788.74;1723327;82;22226;-56
2021/01/01 07:11:34;;;;;;;2.55;1.70;;;;;;;5.18;67.91;95795.89;1732661;80;21187;-57
2021/01/01 07:14:12;;;;;;;1.72;1.57;;;;;;;5.12;67.72;95801.78;1740516;82;21159;-56
2021/01/01 07:16:42;;;;;;;2.17;1.92;;;;;;;5.13;67.78;95808.59;1720989;83;21065;-55
2021/01/01 07:19:11;;;;;;;1.92;1.70;;;;;;;5.13;67.85;95814.17;1727736;82;21134;-57
2021/01/01 07:21:39;;;;;;;2.22;1.80;;;;;;;5.13;67.91;95821.89;1731893;82;21215;-57
2021/01/01 07:24:08;;;;;;;3.67;2.00;;;;;;;5.14;67.77;95828.22;1720736;83;21108;-58
2021/01/01 07:26:37;;;;;;;1.90;1.80;;;;;;;5.15;67.70;95824.75;1691000;82;21171;-58
2021/01/01 07:29:05;;;;;;;3.08;2.08;;;;;;;5.21;67.75;95831.72;1713519;83;21175;-59
2021/01/01 07:31:34;;;;;;;2.00;1.80;;;;;;;5.23;67.49;95832.00;1699370;82;21219;-56
2021/01/01 07:34:09;;;;;;;2.90;2.37;;;;;;;5.25;67.64;95832.72;1723469;82;21152;-59
2021/01/01 07:36:37;;;;;;;3.33;2.00;;;;;;;5.30;67.68;95839.70;1724874;82;21613;-58
2021/01/01 07:39:06;;;;;;;2.33;2.12;;;;;;;5.38;67.37;95842.24;1722242;82;21167;-58
2021/01/01 07:41:35;;;;;;;4.15;2.10;;;;;;;5.38;67.02;95845.66;1741070;82;21200;-58
2021/01/01 07:44:03;;;;;;;2.20;1.87;;;;;;;5.38;67.06;95842.24;1740028;82;21072;-58
2021/01/01 07:46:32;;;;;;;2.12;1.92;;;;;;;5.32;66.99;95845.56;1720022;81;21443;-59
2021/01/01 07:49:01;;;;;;;2.52;1.90;;;;;;;5.26;67.32;95854.97;1742032;82;21199;-59
2021/01/01 07:51:33;;;;;;;3.65;2.17;;;;;;;5.25;67.45;95855.06;1709363;81;21165;-60
2021/01/01 07:54:02;;;;;;;33.67;18.90;;;;;;;5.28;67.45;95861.27;1719302;80;21139;-60
2021/01/01 07:56:33;;;;;;;32.70;19.42;;;;;;;5.32;67.86;95857.14;1716533;82;21093;-59
2021/01/01 07:59:02;;;;;;;3.67;2.80;;;;;;;5.43;67.55;95862.92;1719700;82;21141;-59
2021/01/01 08:01:30;;;;;;;3.33;2.50;;;;;;;5.52;67.30;95863.63;1721341;82;21206;-57
2021/01/01 08:03:58;;;;;;;2.77;2.30;;;;;;;5.58;67.16;95874.48;1717513;82;21543;-58
2021/01/01 08:06:27;;;;;;;2.30;2.10;;;;;;;5.61;67.01;95871.25;1735881;82;21660;-59
2021/01/01 08:09:04;;;;;;;2.70;2.35;;;;;;;5.66;66.90;95873.55;1715803;82;21180;-62
2021/01/01 08:11:33;;;;;;;2.98;2.00;;;;;;;5.67;66.65;95876.47;1733130;80;22300;-60
2021/01/01 08:14:01;;;;;;;2.25;2.02;;;;;;;5.68;66.57;95880.70;1728310;82;28262;-59
2021/01/01 08:16:30;;;;;;;5.28;2.70;;;;;;;5.68;66.43;95881.52;1718897;82;21099;-57
2021/01/01 08:18:58;;;;;;;2.45;2.12;;;;;;;5.73;66.46;95885.58;1701081;83;21076;-58
2021/01/01 08:21:26;;;;;;;2.20;2.00;;;;;;;5.77;66.26;95890.88;1719685;81;21128;-59
2021/01/01 08:24:08;;;;;;;2.17;1.57;;;;;;;5.79;66.15;95887.30;1704056;82;22081;-61
2021/01/01 08:26:38;;;;;;;4.85;2.30;;;;;;;5.82;66.09;95896.56;1720699;82;21132;-58
2021/01/01 08:29:10;;;;;;;2.52;2.10;;;;;;;5.89;66.29;95891.41;1729482;82;21108;-58
2021/01/01 08:31:38;;;;;;;2.60;2.40;;;;;;;5.95;66.12;95900.02;1703771;82;21195;-58
2021/01/01 08:34:06;;;;;;;2.75;2.40;;;;;;;6.02;66.33;95900.48;1730474;82;21108;-60
2021/01/01 08:36:35;;;;;;;2.67;2.35;;;;;;;6.10;66.05;95903.88;1722474;82;22340;-59
2021/01/01 08:39:12;;;;;;;3.25;2.80;;;;;;;6.16;65.91;95907.35;1724058;82;21143;-58
2021/01/01 08:41:45;;;;;;;3.67;2.80;;;;;;;6.18;65.78;95910.65;1726697;82;21158;-58
2021/01/01 08:44:16;;;;;;;3.27;2.95;;;;;;;6.18;65.74;95908.89;1730397;82;21064;-59
2021/01/01 08:46:43;;;;;;;4.08;3.40;;;;;;;6.20;65.68;95912.22;1712438;82;21242;-58
2021/01/01 08:49:20;;;;;;;4.22;3.42;;;;;;;6.19;66.09;95917.46;1720663;81;21218;-61
2021/01/01 08:51:49;;;;;;;4.10;3.12;;;;;;;6.21;66.11;95919.00;1727493;82;21576;-57
2021/01/01 08:54:25;;;;;;;3.87;3.20;;;;;;;6.18;65.58;95922.23;1730443;81;21119;-58
2021/01/01 08:57:00;;;;;;;4.30;3.40;;;;;;;5.97;66.04;95928.28;1724716;82;21092;-59
2021/01/01 08:59:29;;;;;;;3.05;2.77;;;;;;;5.92;66.67;95926.42;1730277;82;21581;-55
2021/01/01 09:02:03;;;;;;;4.92;2.72;;;;;;;5.87;66.73;95933.14;1715070;82;21204;-56
2021/01/01 09:04:31;;;;;;;3.75;2.80;;;;;;;5.80;66.92;95936.56;1724588;82;21604;-56
2021/01/01 09:07:02;;;;;;;2.58;2.10;;;;;;;5.75;67.07;95932.16;1717236;82;21074;-56
2021/01/01 09:09:33;;;;;;;2.45;2.25;;;;;;;5.72;67.08;95940.06;1742987;81;21491;-57
2021/01/01 09:12:21;;;;;;;2.52;2.20;;;;;;;5.74;67.24;95944.69;1730130;82;21073;-57
2021/01/01 09:14:56;;;;;;;4.28;2.72;;;;;;;5.77;67.16;95948.33;1689315;82;21165;-56
2021/01/01 09:17:25;;;;;;;4.33;2.83;;;;;;;5.77;67.12;95947.05;1741611;80;21170;-56
2021/01/01 09:20:08;;;;;;;3.47;2.50;;;;;;;5.79;67.00;95946.95;1728988;82;21096;-56
2021/01/01 09:22:38;;;;;;;3.70;3.12;;;;;;;5.76;67.13;95947.98;1736564;81;21159;-57
2021/01/01 09:25:24;;;;;;;4.33;3.22;;;;;;;5.79;67.54;95949.09;1732985;82;21124;-58
2021/01/01 09:27:53;;;;;;;2.92;2.62;;;;;;;5.89;67.47;95954.02;1725690;82;22261;-57
2021/01/01 09:30:29;;;;;;;3.87;2.92;;;;;;;5.99;67.38;95955.60;1733645;82;21088;-56
2021/01/01 09:33:01;;;;;;;3.75;2.50;;;;;;;6.03;67.28;95957.52;1735747;81;21132;-55
2021/01/01 09:35:30;;;;;;;2.87;2.40;;;;;;;6.08;66.99;95955.48;1727415;82;21073;-56
2021/01/01 09:38:00;;;;;;;5.92;3.75;;;;;;;6.14;66.72;95954.28;1711985;83;21139;-57
2021/01/01 09:40:31;;;;;;;147.85;88.33;;;;;;;6.18;66.85;95953.15;1720738;82;21446;-56
2021/01/01 09:43:05;;;;;;;43.92;28.02;;;;;;;6.30;66.91;95956.25;1715684;82;21533;-55
2021/01/01 09:45:34;;;;;;;10.32;7.53;;;;;;;6.48;65.96;95957.27;1730888;80;21203;-55
2021/01/01 09:48:02;;;;;;;4.72;3.45;;;;;;;6.55;65.53;95954.21;1733570;80;21151;-55
2021/01/01 09:50:31;;;;;;;4.60;3.33;;;;;;;6.58;65.50;95959.17;1714501;82;21189;-56
2021/01/01 09:53:02;;;;;;;4.25;3.55;;;;;;;6.65;65.35;95956.20;1734428;82;21195;-56
2021/01/01 09:55:31;;;;;;;24.98;17.20;;;;;;;6.72;65.28;95951.00;1738861;81;21524;-54
2021/01/01 09:57:59;;;;;;;3.52;3.22;;;;;;;6.82;64.90;95957.20;1756473;81;21077;-54
2021/01/01 10:00:29;;;;;;;3.30;2.60;;;;;;;7.02;64.79;95956.35;1732027;82;21825;-51
2021/01/01 10:02:56;;;;;;;2.85;2.50;;;;;;;7.33;64.21;95960.28;1746974;79;21500;-59
2021/01/01 10:05:26;;;;;;;7.90;4.80;;;;;;;7.78;63.59;95963.24;1766320;79;21193;-57
2021/01/01 10:07:54;;;;;;;;;;;;;;;8.53;62.53;95957.58;1729834;82;21166;-55
2021/01/01 10:10:24;;;;;;;3.83;3.10;;;;;;;9.09;60.57;95956.45;1723455;83;20301;-57
2021/01/01 10:12:53;;;;;;;3.98;3.00;;;;;;;9.47;59.52;95955.80;1744404;81;21088;-59
2021/01/01 10:15:21;;;;;;;4.80;3.80;;;;;;;9.74;58.20;95956.28;1740434;81;21127;-57
2021/01/01 10:17:49;;;;;;;11.05;8.90;;;;;;;9.80;57.61;95957.55;1742411;81;21141;-57
2021/01/01 10:20:17;;;;;;;4.30;3.90;;;;;;;9.77;57.18;95955.23;1757629;80;21184;-57
2021/01/01 10:22:46;;;;;;;3.95;2.75;;;;;;;9.69;57.21;95950.62;1761285;81;21124;-57
2021/01/01 10:25:15;;;;;;;3.70;3.00;;;;;;;9.61;57.24;95950.88;1735210;81;21211;-58
2021/01/01 10:27:45;;;;;;;3.60;3.00;;;;;;;9.38;57.16;95950.86;1737683;82;21040;-58
2021/01/01 10:30:18;;;;;;;4.08;2.80;;;;;;;9.15;57.80;95954.70;1734047;82;22190;-59
2021/01/01 10:32:48;;;;;;;4.53;3.35;;;;;;;9.03;58.56;95954.34;1759342;81;21695;-57
2021/01/01 10:35:17;;;;;;;3.85;3.40;;;;;;;8.91;58.48;95954.77;1762628;80;21103;-58
2021/01/01 10:37:45;;;;;;;3.85;2.50;;;;;;;8.78;58.52;95952.73;1746412;80;21187;-58
2021/01/01 10:40:13;;;;;;;3.95;2.85;;;;;;;8.60;58.96;95953.60;1728357;81;21640;-58
2021/01/01 10:42:41;;;;;;;;;;;;;;;8.46;59.30;95953.33;1743328;81;22337;-58
2021/01/01 10:45:15;;;;;;;3.92;2.95;;;;;;;8.37;59.34;95948.77;1740062;82;20213;-58
2021/01/01 10:47:43;;;;;;;2.55;2.20;;;;;;;8.26;59.52;95947.79;1744607;82;21095;-58
2021/01/01 10:50:11;;;;;;;4.53;2.65;;;;;;;8.19;59.69;95947.88;1739132;81;21116;-57
2021/01/01 10:52:39;;;;;;;3.20;2.42;;;;;;;8.14;60.00;95951.27;1763130;80;21153;-57
2021/01/01 10:55:08;;;;;;;3.15;2.55;;;;;;;8.14;60.32;95947.39;1762341;80;21951;-57
2021/01/01 10:57:36;;;;;;;3.42;2.70;;;;;;;8.17;60.37;95944.56;1763922;79;21137;-58
2021/01/01 11:00:10;;;;;;;3.30;2.80;;;;;;;8.29;60.12;95948.87;1765065;79;21196;-58
2021/01/01 11:02:39;;;;;;;3.80;3.10;;;;;;;8.50;59.99;95954.73;1722701;82;21172;-57
2021/01/01 11:05:09;;;;;;;107.92;62.33;;;;;;;8.64;59.82;95948.09;1738026;81;21717;-61
2021/01/01 11:07:37;;;;;;;28.00;17.92;;;;;;;8.69;59.38;95943.89;1747152;81;21383;-57
2021/01/01 11:10:06;;;;;;;7.75;5.45;;;;;;;8.66;59.35;95952.69;1737958;81;21182;-57
2021/01/01 11:12:34;;;;;;;4.58;3.60;;;;;;;8.62;59.25;95949.17;1743135;81;21627;-58
2021/01/01 12:25:18;;;;;;;5.50;4.30;;;;;;;8.39;60.26;95996.05;1753287;79;21551;-59
2021/01/01 12:27:47;;;;;;;6.12;4.33;;;;;;;8.35;60.62;96003.64;1801579;79;21139;-60
2021/01/01 12:30:16;;;;;;;8.00;4.60;;;;;;;8.35;60.14;95998.00;1795147;79;21257;-59
2021/01/01 12:32:45;;;;;;;5.08;4.03;;;;;;;8.20;60.23;95998.61;1791188;78;22355;-59
2021/01/01 12:35:13;;;;;;;4.87;3.83;;;;;;;8.05;60.90;96008.74;1765761;79;21176;-58
2021/01/01 12:37:46;;;;;;;40.88;31.50;;;;;;;7.99;61.29;96008.69;1793821;79;21171;-59
2021/01/01 12:40:15;;;;;;;9.43;8.43;;;;;;;7.80;61.85;96013.02;1792916;79;21199;-58
2021/01/01 12:42:43;;;;;;;5.55;3.70;;;;;;;7.60;62.70;96015.68;1801040;79;21189;-61
2021/01/01 12:45:13;;;;;;;4.85;4.15;;;;;;;7.55;62.97;96019.04;1793947;79;21357;-62
2021/01/01 12:47:42;;;;;;;4.92;3.80;;;;;;;7.55;63.16;96021.15;1792810;79;21197;-60
2021/01/01 12:50:13;;;;;;;4.92;3.55;;;;;;;7.58;63.03;96023.16;1745367;81;21123;-59
2021/01/01 12:52:43;;;;;;;3.75;3.35;;;;;;;7.56;63.28;96027.12;1741827;81;21178;-59
2021/01/01 12:55:13;;;;;;;5.00;3.70;;;;;;;7.50;63.44;96036.13;1670155;81;21196;-59
2021/01/01 12:57:42;;;;;;;5.08;3.60;;;;;;;7.49;63.35;96034.94;1750331;81;21336;-58
2021/01/01 13:00:13;;;;;;;4.00;3.52;;;;;;;7.46;63.25;96034.66;1746350;81;21592;-59
2021/01/01 13:02:41;;;;;;;6.05;3.72;;;;;;;7.43;63.19;96042.61;1740777;81;21914;-60
2021/01/01 13:05:14;;;;;;;4.85;3.70;;;;;;;7.40;63.26;96045.86;1722950;83;21183;-59